createdAt,value
2023-03-25T00:00:57.890Z,95204.16
2023-03-25T00:03:26.613Z,95201.69
2023-03-25T00:05:54.840Z,95205.09
2023-03-25T00:08:23.052Z,95199.31
2023-03-25T00:10:55.515Z,95196.47
2023-03-25T00:13:23.690Z,95195.28
2023-03-25T00:15:53.840Z,95192.44
2023-03-25T00:18:22.792Z,95193.59
2023-03-25T00:20:51.648Z,95200.69
2023-03-25T00:23:21.114Z,95194.59
2023-03-25T00:25:50.339Z,95200.72
2023-03-25T00:28:19.794Z,95200.78
2023-03-25T00:30:47.793Z,95201.66
2023-03-25T00:33:16.691Z,95204.53
2023-03-25T00:35:45.213Z,95201.78
2023-03-25T00:38:13.279Z,95210.59
2023-03-25T00:40:41.734Z,95205.41
2023-03-25T00:43:11.180Z,95212.19
2023-03-25T00:45:40.457Z,95212.63
2023-03-25T00:48:08.537Z,95205.50
2023-03-25T00:50:36.517Z,95215.34
2023-03-25T00:53:04.664Z,95215.34
2023-03-25T00:55:33.115Z,95211.56
2023-03-25T00:58:01.189Z,95213.97
2023-03-25T01:00:29.301Z,95207.22
2023-03-25T01:02:58.750Z,95208.81
2023-03-25T01:05:26.715Z,95209.97
2023-03-25T01:07:55.558Z,95213.09
2023-03-25T01:10:23.656Z,95218.56
2023-03-25T01:12:51.858Z,95218.91
2023-03-25T01:15:19.757Z,95222.19
2023-03-25T01:17:48.362Z,95204.22
2023-03-25T01:20:17.865Z,95200.63
2023-03-25T01:22:46.361Z,95209.44
2023-03-25T01:25:14.403Z,95213.00
2023-03-25T01:27:42.349Z,95212.53
2023-03-25T01:30:11.773Z,95204.41
2023-03-25T01:32:39.778Z,95214.41
2023-03-25T01:35:08.770Z,95213.53
2023-03-25T01:37:38.771Z,95209.53
2023-03-25T01:40:10.271Z,95202.28
2023-03-25T01:42:38.226Z,95197.88
2023-03-25T01:45:20.678Z,95205.28
2023-03-25T01:47:51.797Z,95202.66
2023-03-25T01:50:21.608Z,95209.53
2023-03-25T01:52:53.104Z,95203.69
2023-03-25T01:55:21.370Z,95214.13
2023-03-25T01:57:54.408Z,95216.72
2023-03-25T02:00:23.027Z,95229.97
2023-03-25T02:02:52.728Z,95223.94
2023-03-25T02:05:25.330Z,95219.97
2023-03-25T02:07:57.928Z,95226.13
2023-03-25T02:10:26.142Z,95239.63
2023-03-25T02:12:54.075Z,95232.38
2023-03-25T02:15:22.216Z,95227.66
2023-03-25T02:18:13.455Z,95225.63
2023-03-25T02:21:18.297Z,95226.00
2023-03-25T02:24:35.324Z,95230.16
2023-03-25T02:27:28.427Z,95232.38
2023-03-25T02:30:31.337Z,95234.66
2023-03-25T02:33:32.013Z,95224.16
2023-03-25T02:36:30.398Z,95231.97
2023-03-25T02:39:03.828Z,95233.78
2023-03-25T02:41:41.114Z,95220.94
2023-03-25T02:44:15.433Z,95234.53
2023-03-25T02:46:49.720Z,95228.75
2023-03-25T02:49:26.015Z,95234.72
2023-03-25T02:51:57.761Z,95229.44
2023-03-25T02:54:29.583Z,95218.16
2023-03-25T02:57:00.152Z,95221.72
2023-03-25T02:59:33.255Z,95221.66
2023-03-25T03:02:05.967Z,95224.84
2023-03-25T03:04:33.984Z,95224.53
2023-03-25T03:07:02.228Z,95230.59
2023-03-25T03:09:38.473Z,95234.22
2023-03-25T03:12:21.930Z,95236.69
2023-03-25T03:15:01.725Z,95231.47
2023-03-25T03:17:39.972Z,95220.59
2023-03-25T03:20:19.137Z,95216.91
2023-03-25T03:22:52.781Z,95214.53
2023-03-25T03:25:31.429Z,95208.59
2023-03-25T03:28:06.255Z,95201.03
2023-03-25T03:30:42.422Z,95193.44
2023-03-25T03:33:16.163Z,95194.25
2023-03-25T03:35:50.488Z,95179.41
2023-03-25T03:38:22.177Z,95180.91
2023-03-25T03:40:55.550Z,95175.41
2023-03-25T03:43:28.954Z,95176.44
2023-03-25T03:46:01.940Z,95175.59
2023-03-25T03:48:33.839Z,95177.53
2023-03-25T03:51:07.891Z,95181.53
2023-03-25T03:53:39.268Z,95192.75
2023-03-25T03:56:13.050Z,95204.41
2023-03-25T03:58:43.357Z,95216.97
2023-03-25T04:01:15.058Z,95226.78
2023-03-25T04:03:48.639Z,95218.81
2023-03-25T04:06:24.504Z,95208.69
2023-03-25T04:08:59.028Z,95198.59
2023-03-25T04:11:33.988Z,95205.75
2023-03-25T04:14:04.500Z,95215.66
2023-03-25T04:16:35.918Z,95218.38
2023-03-25T04:19:05.428Z,95232.41
2023-03-25T04:21:34.066Z,95212.75
2023-03-25T04:24:02.010Z,95212.69
2023-03-25T04:26:34.048Z,95215.09
2023-03-25T04:29:03.000Z,95215.09
2023-03-25T04:31:31.959Z,95223.94
2023-03-25T04:34:00.698Z,95225.09
2023-03-25T04:36:29.783Z,95228.28
2023-03-25T04:38:57.742Z,95223.50
2023-03-25T04:41:26.387Z,95223.22
2023-03-25T04:43:55.761Z,95229.44
2023-03-25T04:46:23.956Z,95230.31
2023-03-25T04:48:53.808Z,95233.56
2023-03-25T04:51:23.401Z,95261.78
2023-03-25T04:53:51.340Z,95259.84
2023-03-25T04:56:20.685Z,95265.06
2023-03-25T04:58:48.633Z,95258.16
2023-03-25T05:01:30.886Z,95266.56
2023-03-25T05:04:05.698Z,95273.38
2023-03-25T05:06:34.581Z,95277.00
2023-03-25T05:09:04.728Z,95266.13
2023-03-25T05:11:34.212Z,95267.31
2023-03-25T05:14:02.174Z,95267.63
2023-03-25T05:16:31.564Z,95265.63
2023-03-25T05:18:59.527Z,95266.03
2023-03-25T05:21:27.653Z,95250.81
2023-03-25T05:23:55.604Z,95263.41
2023-03-25T05:26:23.531Z,95260.22
2023-03-25T05:28:51.708Z,95260.41
2023-03-25T05:31:19.944Z,95263.59
2023-03-25T05:33:51.520Z,95258.38
2023-03-25T05:36:19.583Z,95259.66
2023-03-25T05:38:48.315Z,95248.28
2023-03-25T05:41:17.528Z,95257.25
2023-03-25T05:43:47.546Z,95260.41
2023-03-25T05:46:16.292Z,95257.19
2023-03-25T05:48:44.652Z,95254.00
2023-03-25T05:51:16.745Z,95259.22
2023-03-25T05:53:45.170Z,95256.03
2023-03-25T05:56:13.168Z,95260.81
2023-03-25T05:58:41.084Z,95255.59
2023-03-25T06:01:17.043Z,95258.22
2023-03-25T06:03:53.785Z,95264.84
2023-03-25T06:06:25.835Z,95261.81
2023-03-25T06:08:53.876Z,95257.81
2023-03-25T06:11:21.860Z,95253.97
2023-03-25T06:13:50.868Z,95262.16
2023-03-25T06:16:20.744Z,95267.25
2023-03-25T06:18:56.181Z,95270.06
2023-03-25T06:21:26.593Z,95260.41
2023-03-25T06:23:55.441Z,95257.19
2023-03-25T06:26:24.650Z,95257.19
2023-03-25T06:28:52.552Z,95267.63
2023-03-25T06:31:22.714Z,95251.59
2023-03-25T06:33:51.761Z,95254.78
2023-03-25T06:36:20.834Z,95249.13
2023-03-25T06:38:52.154Z,95252.31
2023-03-25T06:41:25.728Z,95255.06
2023-03-25T06:44:16.883Z,95250.88
2023-03-25T06:47:11.561Z,95268.97
2023-03-25T06:49:44.960Z,95263.19
2023-03-25T06:52:13.038Z,95255.06
2023-03-25T06:54:42.550Z,95269.28
2023-03-25T06:57:10.591Z,95276.72
2023-03-25T06:59:38.524Z,95275.50
2023-03-25T07:02:06.518Z,95278.69
2023-03-25T07:04:34.750Z,95272.28
2023-03-25T07:07:02.651Z,95267.44
2023-03-25T07:09:30.774Z,95275.41
2023-03-25T07:12:00.749Z,95259.69
2023-03-25T07:14:28.676Z,95262.94
2023-03-25T07:16:56.648Z,95252.22
2023-03-25T07:19:24.578Z,95266.66
2023-03-25T07:21:52.508Z,95254.25
2023-03-25T07:24:20.436Z,95273.47
2023-03-25T07:26:48.371Z,95252.63
2023-03-25T07:29:19.647Z,95248.81
2023-03-25T07:31:47.736Z,95253.38
2023-03-25T07:34:15.860Z,95259.75
2023-03-25T07:36:43.812Z,95250.47
2023-03-25T07:39:11.792Z,95255.25
2023-03-25T07:41:39.822Z,95261.69
2023-03-25T07:44:18.264Z,95271.50
2023-03-25T07:46:47.854Z,95268.88
2023-03-25T07:49:15.954Z,95275.69
2023-03-25T07:51:44.012Z,95282.22
2023-03-25T07:54:12.253Z,95287.84
2023-03-25T07:56:40.374Z,95301.47
2023-03-25T07:59:09.444Z,95305.47
2023-03-25T08:01:37.379Z,95316.38
2023-03-25T08:04:07.101Z,95321.25
2023-03-25T08:06:35.075Z,95318.81
2023-03-25T08:09:03.902Z,95317.56
2023-03-25T08:11:33.893Z,95323.13
2023-03-25T08:14:02.594Z,95318.28
2023-03-25T08:16:30.576Z,95322.91
2023-03-25T08:18:58.572Z,95326.25
2023-03-25T08:21:28.009Z,95317.50
2023-03-25T08:24:02.425Z,95329.16
2023-03-25T08:26:31.176Z,95332.75
2023-03-25T08:28:59.714Z,95324.94
2023-03-25T08:31:31.086Z,95329.88
2023-03-25T08:33:59.629Z,95330.81
2023-03-25T08:36:29.173Z,95314.88
2023-03-25T08:38:57.117Z,95317.69
2023-03-25T08:41:26.210Z,95334.06
2023-03-25T08:43:54.140Z,95334.06
2023-03-25T08:46:23.291Z,95336.53
2023-03-25T08:48:51.312Z,95350.56
2023-03-25T08:51:19.282Z,95357.81
2023-03-25T08:53:48.710Z,95355.38
2023-03-25T08:56:16.848Z,95367.53
2023-03-25T08:58:44.750Z,95364.94
2023-03-25T09:01:13.067Z,95365.22
2023-03-25T09:03:41.098Z,95374.22
2023-03-25T09:06:09.962Z,95387.13
2023-03-25T09:08:38.419Z,95390.41
2023-03-25T09:11:08.201Z,95395.63
2023-03-25T09:13:36.183Z,95387.94
2023-03-25T09:16:04.502Z,95388.34
2023-03-25T09:18:33.095Z,95384.22
2023-03-25T09:21:01.168Z,95368.88
2023-03-25T09:23:29.148Z,95370.47
2023-03-25T09:26:00.709Z,95370.03
2023-03-25T09:28:30.827Z,95380.91
2023-03-25T09:30:59.172Z,95367.28
2023-03-25T09:33:27.701Z,95365.25
2023-03-25T09:35:55.904Z,95363.66
2023-03-25T09:38:23.851Z,95362.78
2023-03-25T09:40:51.948Z,95351.47
2023-03-25T09:43:30.725Z,95360.66
2023-03-25T09:46:01.861Z,95345.56
2023-03-25T09:48:36.101Z,95356.44
2023-03-25T09:51:06.462Z,95359.88
2023-03-25T09:53:39.902Z,95359.88
2023-03-25T09:56:15.067Z,95361.66
2023-03-25T09:58:45.580Z,95362.25
2023-03-25T10:01:34.794Z,95365.44
2023-03-25T10:04:50.378Z,95367.47
2023-03-25T10:07:33.172Z,95362.66
2023-03-25T10:10:10.062Z,95358.88
2023-03-25T10:12:43.924Z,95363.09
2023-03-25T10:15:22.746Z,95373.09
2023-03-25T10:18:02.186Z,95373.53
2023-03-25T10:20:43.117Z,95370.13
2023-03-25T10:23:22.318Z,95370.34
2023-03-25T10:25:56.822Z,95370.91
2023-03-25T10:28:31.330Z,95363.25
2023-03-25T10:31:00.173Z,95364.69
2023-03-25T10:33:37.102Z,95364.69
2023-03-25T10:36:08.811Z,95351.63
2023-03-25T10:38:39.378Z,95350.19
2023-03-25T10:41:17.512Z,95340.91
2023-03-25T10:43:45.682Z,95348.88
2023-03-25T10:46:21.166Z,95349.03
2023-03-25T10:48:51.481Z,95365.44
2023-03-25T10:51:22.083Z,95359.63
2023-03-25T10:53:53.326Z,95363.25
2023-03-25T10:56:25.487Z,95360.78
2023-03-25T10:58:55.758Z,95365.56
2023-03-25T11:01:35.850Z,95377.25
2023-03-25T11:04:07.724Z,95376.69
2023-03-25T11:06:40.378Z,95362.75
2023-03-25T11:09:15.482Z,95332.03
2023-03-25T11:14:27.741Z,95334.03
2023-03-25T11:16:58.199Z,95331.06
2023-03-25T11:19:29.779Z,95323.31
2023-03-25T11:22:01.982Z,95320.72
2023-03-25T11:24:34.897Z,95316.63
2023-03-25T11:27:04.138Z,95326.63
2023-03-25T11:29:35.162Z,95329.97
2023-03-25T11:32:08.940Z,95325.78
2023-03-25T11:34:42.373Z,95332.59
2023-03-25T11:37:18.030Z,95331.00
2023-03-25T11:39:51.626Z,95337.81
2023-03-25T11:42:32.584Z,95342.66
2023-03-25T11:45:03.618Z,95340.44
2023-03-25T11:47:34.069Z,95332.44
2023-03-25T11:50:02.525Z,95337.09
2023-03-25T11:52:39.269Z,95328.44
2023-03-25T11:55:08.263Z,95335.94
2023-03-25T11:57:40.886Z,95324.59
2023-03-25T12:00:23.215Z,95339.47
2023-03-25T12:03:00.905Z,95350.38
2023-03-25T12:05:29.174Z,95365.22
2023-03-25T12:08:05.891Z,95361.81
2023-03-25T12:10:47.864Z,95359.78
2023-03-25T12:13:23.961Z,95364.75
2023-03-25T12:16:03.095Z,95365.97
2023-03-25T12:18:48.224Z,95355.41
2023-03-25T12:21:28.676Z,95359.09
2023-03-25T12:24:10.490Z,95353.81
2023-03-25T12:26:48.148Z,95330.72
2023-03-25T12:29:34.500Z,95340.16
2023-03-25T12:32:16.875Z,95340.59
2023-03-25T12:34:55.398Z,95328.22
2023-03-25T12:37:33.790Z,95321.03
2023-03-25T12:40:22.068Z,95323.44
2023-03-25T12:42:59.915Z,95306.81
2023-03-25T12:45:50.699Z,95314.34
2023-03-25T12:48:31.942Z,95305.72
2023-03-25T12:51:08.268Z,95302.19
2023-03-25T12:53:47.489Z,95301.41
2023-03-25T12:56:27.554Z,95287.53
2023-03-25T12:59:19.395Z,95298.44
2023-03-25T13:01:59.403Z,95294.56
2023-03-25T13:04:45.328Z,95287.50
2023-03-25T13:07:17.209Z,95278.56
2023-03-25T13:09:55.518Z,95284.38
2023-03-25T13:12:32.661Z,95281.81
2023-03-25T13:15:07.803Z,95281.81
2023-03-25T13:17:40.261Z,95267.88
2023-03-25T13:20:12.178Z,95273.09
2023-03-25T13:22:44.906Z,95263.66
2023-03-25T13:25:21.331Z,95269.06
2023-03-25T13:27:52.710Z,95255.69
2023-03-25T13:30:32.514Z,95251.53
2023-03-25T13:33:08.236Z,95242.84
2023-03-25T13:35:44.487Z,95246.69
2023-03-25T13:38:18.757Z,95237.94
2023-03-25T13:40:53.100Z,95232.28
2023-03-25T13:43:30.262Z,95235.69
2023-03-25T13:46:03.201Z,95229.13
2023-03-25T13:48:37.891Z,95237.50
2023-03-25T13:51:09.123Z,95238.22
2023-03-25T13:53:44.139Z,95239.59
2023-03-25T13:56:57.295Z,95243.34
2023-03-25T13:59:52.108Z,95232.25
2023-03-25T14:02:40.683Z,95238.94
2023-03-25T14:05:53.075Z,95241.59
2023-03-25T14:08:55.942Z,95225.38
2023-03-25T14:11:28.665Z,95229.19
2023-03-25T14:14:01.897Z,95230.75
2023-03-25T14:16:34.472Z,95228.31
2023-03-25T14:19:05.220Z,95225.06
2023-03-25T14:21:41.385Z,95227.56
2023-03-25T14:24:17.035Z,95221.69
2023-03-25T14:26:49.896Z,95223.41
2023-03-25T14:29:26.424Z,95230.44
2023-03-25T14:32:03.210Z,95237.75
2023-03-25T14:34:31.370Z,95223.13
2023-03-25T14:37:19.577Z,95221.09
2023-03-25T14:39:49.301Z,95235.09
2023-03-25T14:42:31.813Z,95230.50
2023-03-25T14:45:35.630Z,95227.63
2023-03-25T14:48:19.501Z,95220.78
2023-03-25T14:51:11.253Z,95217.44
2023-03-25T14:53:39.865Z,95217.44
2023-03-25T14:56:18.248Z,95219.50
2023-03-25T14:58:47.324Z,95218.84
2023-03-25T15:01:19.573Z,95213.13
2023-03-25T15:03:48.772Z,95208.53
2023-03-25T15:06:19.302Z,95212.25
2023-03-25T15:08:55.317Z,95199.13
2023-03-25T15:11:34.498Z,95200.59
2023-03-25T15:14:04.994Z,95198.34
2023-03-25T15:16:35.871Z,95203.75
2023-03-25T15:19:12.126Z,95205.34
2023-03-25T15:22:20.424Z,95188.50
2023-03-25T15:25:00.540Z,95205.66
2023-03-25T15:27:54.691Z,95194.84
2023-03-25T15:30:52.785Z,95196.94
2023-03-25T15:33:35.218Z,95191.84
2023-03-25T15:36:20.480Z,95184.38
2023-03-25T15:39:02.914Z,95187.28
2023-03-25T15:41:52.096Z,95180.56
2023-03-25T15:45:19.657Z,95186.59
2023-03-25T15:48:21.886Z,95187.16
2023-03-25T15:51:08.126Z,95184.84
2023-03-25T15:53:49.788Z,95182.06
2023-03-25T15:56:20.570Z,95176.91
2023-03-25T15:58:56.759Z,95177.38
2023-03-25T16:01:29.235Z,95169.97
2023-03-25T16:04:02.026Z,95165.75
2023-03-25T16:06:32.258Z,95166.25
2023-03-25T16:09:02.918Z,95169.41
2023-03-25T16:11:31.446Z,95170.56
2023-03-25T16:14:08.390Z,95172.16
2023-03-25T16:16:40.671Z,95173.06
2023-03-25T16:19:16.902Z,95164.75
2023-03-25T16:21:49.425Z,95161.44
2023-03-25T16:24:20.606Z,95159.84
2023-03-25T16:26:50.184Z,95163.56
2023-03-25T16:29:21.045Z,95163.88
2023-03-25T16:31:54.392Z,95155.84
2023-03-25T16:34:24.339Z,95159.91
2023-03-25T16:36:53.947Z,95157.69
2023-03-25T16:39:24.336Z,95164.63
2023-03-25T16:42:00.581Z,95159.41
2023-03-25T16:44:28.832Z,95150.19
2023-03-25T16:46:56.868Z,95147.00
2023-03-25T16:49:31.041Z,95155.09
2023-03-25T16:52:01.722Z,95156.38
2023-03-25T16:54:37.757Z,95157.41
2023-03-25T16:57:08.641Z,95146.53
2023-03-25T16:59:38.433Z,95152.88
2023-03-25T17:02:25.812Z,95143.53
2023-03-25T17:04:58.207Z,95139.31
2023-03-25T17:07:30.683Z,95128.09
2023-03-25T17:10:00.768Z,95132.25
2023-03-25T17:12:30.709Z,95135.19
2023-03-25T17:15:07.004Z,95132.97
2023-03-25T17:17:46.456Z,95125.50
2023-03-25T17:20:20.723Z,95130.56
2023-03-25T17:23:00.498Z,95127.84
2023-03-25T17:25:32.340Z,95125.94
2023-03-25T17:28:08.450Z,95122.19
2023-03-25T17:30:45.865Z,95123.78
2023-03-25T17:33:16.604Z,95127.22
2023-03-25T17:35:53.008Z,95113.56
2023-03-25T17:38:27.214Z,95120.97
2023-03-25T17:41:07.439Z,95122.22
2023-03-25T17:43:39.747Z,95119.06
2023-03-25T17:46:08.374Z,95112.69
2023-03-25T17:48:37.329Z,95109.53
2023-03-25T17:51:07.190Z,95106.13
2023-03-25T17:53:35.330Z,95110.72
2023-03-25T17:56:03.641Z,95115.50
2023-03-25T17:58:32.172Z,95106.69
2023-03-25T18:01:01.342Z,95102.03
2023-03-25T18:03:32.378Z,95106.47
2023-03-25T18:06:00.922Z,95104.41
2023-03-25T18:08:30.986Z,95095.19
2023-03-25T18:10:59.025Z,95097.72
2023-03-25T18:13:27.291Z,95086.94
2023-03-25T18:15:56.186Z,95087.63
2023-03-25T18:18:26.258Z,95092.28
2023-03-25T18:20:56.039Z,95091.84
2023-03-25T18:23:24.044Z,95096.06
2023-03-25T18:25:53.729Z,95101.16
2023-03-25T18:28:21.773Z,95099.56
2023-03-25T18:30:53.483Z,95109.72
2023-03-25T18:33:22.592Z,95105.19
2023-03-25T18:35:52.537Z,95104.06
2023-03-25T18:38:22.133Z,95108.25
2023-03-25T18:40:50.452Z,95108.72
2023-03-25T18:43:20.571Z,95110.00
2023-03-25T18:45:50.076Z,95102.81
2023-03-25T18:48:21.289Z,95108.72
2023-03-25T18:50:52.654Z,95101.34
2023-03-25T18:53:22.468Z,95099.75
2023-03-25T18:55:51.319Z,95107.84
2023-03-25T18:58:22.894Z,95105.13
2023-03-25T19:00:52.415Z,95103.97
2023-03-25T19:03:30.313Z,95106.81
2023-03-25T19:05:59.393Z,95105.31
2023-03-25T19:08:28.653Z,95109.75
2023-03-25T19:11:04.799Z,95111.47
2023-03-25T19:13:41.844Z,95119.19
2023-03-25T19:16:10.705Z,95120.44
2023-03-25T19:18:38.751Z,95124.41
2023-03-25T19:21:07.256Z,95122.25
2023-03-25T19:23:36.455Z,95121.13
2023-03-25T19:26:04.652Z,95122.47
2023-03-25T19:28:32.601Z,95128.28
2023-03-25T19:31:02.399Z,95121.94
2023-03-25T19:33:31.904Z,95122.34
2023-03-25T19:36:01.940Z,95118.03
2023-03-25T19:38:32.947Z,95117.81
2023-03-25T19:41:06.739Z,95110.28
2023-03-25T19:43:35.535Z,95107.78
2023-03-25T19:46:07.037Z,95106.19
2023-03-25T19:48:36.154Z,95115.78
2023-03-25T19:51:04.564Z,95114.84
2023-03-25T19:53:32.506Z,95126.44
2023-03-25T19:56:03.146Z,95116.91
2023-03-25T19:58:31.349Z,95096.78
2023-03-25T20:00:59.326Z,95092.72
2023-03-25T20:03:31.303Z,95099.53
2023-03-25T20:06:01.620Z,95091.22
2023-03-25T20:08:30.494Z,95095.31
2023-03-25T20:10:58.888Z,95086.88
2023-03-25T20:13:27.700Z,95087.81
2023-03-25T20:15:55.877Z,95092.34
2023-03-25T20:18:23.963Z,95099.63
2023-03-25T20:20:53.236Z,95103.25
2023-03-25T20:23:21.215Z,95091.63
2023-03-25T20:25:51.516Z,95093.91
2023-03-25T20:28:19.575Z,95100.94
2023-03-25T20:30:47.639Z,95104.56
2023-03-25T20:33:15.655Z,95107.06
2023-03-25T20:35:44.522Z,95114.31
2023-03-25T20:38:14.347Z,95108.66
2023-03-25T20:40:45.077Z,95103.56
2023-03-25T20:43:14.298Z,95093.66
2023-03-25T20:45:43.181Z,95085.97
2023-03-25T20:48:11.259Z,95075.97
2023-03-25T20:50:39.431Z,95075.53
2023-03-25T20:53:07.442Z,95070.75
2023-03-25T20:55:37.420Z,95058.47
2023-03-25T20:58:05.937Z,95054.16
2023-03-25T21:00:34.318Z,95056.53
2023-03-25T21:03:03.292Z,95051.22
2023-03-25T21:05:31.735Z,95046.91
2023-03-25T21:07:59.987Z,95030.44
2023-03-25T21:10:28.017Z,95032.44
2023-03-25T21:12:57.313Z,95038.22
2023-03-25T21:15:25.279Z,95047.19
2023-03-25T21:17:53.280Z,95038.22
2023-03-25T21:20:24.050Z,95039.25
2023-03-25T21:22:52.156Z,95045.94
2023-03-25T21:25:20.246Z,95035.06
2023-03-25T21:27:48.497Z,95027.44
2023-03-25T21:30:17.919Z,95028.25
2023-03-25T21:32:45.911Z,95025.53
2023-03-25T21:35:13.899Z,95016.09
2023-03-25T21:37:41.934Z,95018.44
2023-03-25T21:40:14.595Z,95022.84
2023-03-25T21:42:45.704Z,95009.34
2023-03-25T21:45:16.337Z,95015.25
2023-03-25T21:47:47.478Z,95025.25
2023-03-25T21:50:16.587Z,95031.38
2023-03-25T21:52:46.818Z,95030.09
2023-03-25T21:55:15.795Z,95044.28
2023-03-25T21:57:47.889Z,95030.81
2023-03-25T22:00:19.672Z,95031.53
2023-03-25T22:02:49.510Z,95025.31
2023-03-25T22:05:18.090Z,95025.72
2023-03-25T22:07:46.411Z,95018.38
2023-03-25T22:10:14.377Z,95024.50
2023-03-25T22:12:42.366Z,95018.94
2023-03-25T22:15:11.402Z,95015.81
2023-03-25T22:17:39.534Z,95023.16
2023-03-25T22:20:12.149Z,95035.91
2023-03-25T22:22:40.184Z,95033.94
2023-03-25T22:25:08.940Z,95029.50
2023-03-25T22:27:37.854Z,95044.28
2023-03-25T22:30:08.017Z,95043.28
2023-03-25T22:32:36.530Z,95034.66
2023-03-25T22:35:04.947Z,95006.88
2023-03-25T22:37:37.016Z,95004.59
2023-03-25T22:40:08.620Z,95003.97
2023-03-25T22:42:36.716Z,95010.09
2023-03-25T22:45:06.099Z,95013.22
2023-03-25T22:47:34.177Z,95006.19
2023-03-25T22:50:02.135Z,95004.59
2023-03-25T22:52:30.033Z,94988.94
2023-03-25T22:54:59.572Z,94992.22
2023-03-25T22:57:27.613Z,94988.81
2023-03-25T22:59:55.976Z,94992.22
2023-03-25T23:02:24.030Z,94987.59
2023-03-25T23:04:52.237Z,94972.84
2023-03-25T23:07:20.890Z,94975.09
2023-03-25T23:09:48.922Z,94967.16
2023-03-25T23:12:22.934Z,94957.19
2023-03-25T23:14:54.411Z,94953.22
2023-03-25T23:17:22.934Z,94959.66
2023-03-25T23:19:50.991Z,94952.41
2023-03-25T23:22:19.718Z,94954.00
2023-03-25T23:24:47.739Z,94951.72
2023-03-25T23:27:15.696Z,94950.38
2023-03-25T23:29:45.010Z,94960.00
2023-03-25T23:32:12.938Z,94946.75
2023-03-25T23:34:41.118Z,94945.94
2023-03-25T23:37:10.226Z,94941.53
2023-03-25T23:39:40.450Z,94939.47
2023-03-25T23:42:09.031Z,94937.66
2023-03-25T23:44:37.220Z,94930.63
2023-03-25T23:47:06.910Z,94941.88
2023-03-25T23:49:38.463Z,94942.66
2023-03-25T23:52:11.456Z,94933.81
2023-03-25T23:54:40.897Z,94907.72
2023-03-25T23:57:08.910Z,94912.38
2023-03-25T23:59:36.961Z,94903.41
